Cincinnati, OH

4:27 PM EDT on June 03, 2015 (GMT -0400)
Cincinnati-Northern KY International | | Change Station
CLOSE
Current Station
Airport
Location: Covington,
Elevation: 876 ft
Nearby Weather Stations

Elev 876 ft 39.04 °N, 84.67 °W | Updated 35 minutes ago

Overcast
Overcast
70 °F
Feels Like 70 °F
N
0
Wind Variable Wind from North

Today
High -- | Low -- °F
--% Chance of Precip.
Yesterday
High -- | Low -- °F
Precip. -- in
6:13 AM 8:59 PM
Full, 98% visible
Pressure 30.03 in
Visibility 8.0 miles
Clouds Mostly Cloudy 3500 ft
Mostly Cloudy 3800 ft
Dew Point 56 °F
Humidity 61%
Rainfall 0.02 in
Snow Depth Not available.
UV 5 out of 12
Pollen 8.10 out of 12
Air Quality Not available.
Flu Activity Sporadic
METAR KCVG 031952Z 00000KT 8SM BKN035 BKN038 21/13 A3004 RMK AO2 SLP168 T02110133

More Conditions Fewer Conditions

Pressure 30.03 in
Visibility 8.0 miles
Clouds Mostly Cloudy 3500 ft
Mostly Cloudy 3800 ft
Dew Point 56 °F
Humidity 61%
Rainfall 0.02 in
Snow Depth Not available.
UV 5 out of 12
Pollen 8.10 out of 12
Air Quality Not available.
Flu Activity Sporadic
METAR KCVG 031952Z 00000KT 8SM BKN035 BKN038 21/13 A3004 RMK AO2 SLP168 T02110133

More Conditions Fewer Conditions

10-Day Weather Forecast

×

Almanac

Astronomy

Jun. 03, 2015 Rise Set
Actual Time
Civil Twilight
Nautical Twilight
Astronomical Twilight
Moon
Length of Visible Light
Length of Day
Tomorrow will be .
, % of the Moon is Illuminated

Today's Extremes

State Highs State Lows

Community

WunderPhotos

Upload Photos

1,826,277 photos uploaded!

WunderBlogs® & News

Nearby

Air Quality

  Air Quality AQ Index Pollutant
Not available.

Snow Depth

Station Depth Elevation

Earthquake Activity

City Distance Mag. Time & Date
Minimum magnitude displayed is 2.5.

Coastal Water Temperatures

Place Temperature

Stations

Nearby Weather Stations

Station Location Temp. Windchill Dew Point Humidity Wind Precip. Elev Updated Type